sensor_id;sensor_type;location;lat;lon;timestamp;P1;durP1;ratioP1;P2;durP2;ratioP2
27979;SDS011;15315;50.836;4.430;2023-02-22T00:00:56;71.25;;;27.38;;
27979;SDS011;15315;50.836;4.430;2023-02-22T00:11:02;76.70;;;28.30;;
27979;SDS011;15315;50.836;4.430;2023-02-22T00:21:03;96.00;;;30.75;;
27979;SDS011;15315;50.836;4.430;2023-02-22T00:31:09;73.78;;;27.83;;
27979;SDS011;15315;50.836;4.430;2023-02-22T00:41:10;81.30;;;27.73;;
27979;SDS011;15315;50.836;4.430;2023-02-22T00:51:11;87.90;;;27.25;;
27979;SDS011;15315;50.836;4.430;2023-02-22T01:01:12;71.97;;;27.47;;
27979;SDS011;15315;50.836;4.430;2023-02-22T01:11:13;86.25;;;26.17;;
27979;SDS011;15315;50.836;4.430;2023-02-22T01:21:14;50.15;;;23.13;;
27979;SDS011;15315;50.836;4.430;2023-02-22T01:31:15;53.92;;;23.33;;
27979;SDS011;15315;50.836;4.430;2023-02-22T01:41:15;67.10;;;25.10;;
27979;SDS011;15315;50.836;4.430;2023-02-22T01:51:25;60.70;;;23.60;;
27979;SDS011;15315;50.836;4.430;2023-02-22T02:01:29;62.20;;;24.02;;
27979;SDS011;15315;50.836;4.430;2023-02-22T02:11:29;51.47;;;22.60;;
27979;SDS011;15315;50.836;4.430;2023-02-22T02:22:17;65.70;;;23.45;;
27979;SDS011;15315;50.836;4.430;2023-02-22T02:42:09;36.13;;;19.08;;
27979;SDS011;15315;50.836;4.430;2023-02-22T02:52:12;33.92;;;19.40;;
27979;SDS011;15315;50.836;4.430;2023-02-22T03:12:52;33.70;;;18.90;;
27979;SDS011;15315;50.836;4.430;2023-02-22T03:23:10;32.47;;;17.88;;
27979;SDS011;15315;50.836;4.430;2023-02-22T03:33:29;29.45;;;17.25;;
27979;SDS011;15315;50.836;4.430;2023-02-22T03:43:45;26.85;;;16.55;;
27979;SDS011;15315;50.836;4.430;2023-02-22T03:53:49;25.95;;;15.38;;
27979;SDS011;15315;50.836;4.430;2023-02-22T04:03:51;28.05;;;16.30;;
27979;SDS011;15315;50.836;4.430;2023-02-22T04:13:51;26.77;;;15.82;;
27979;SDS011;15315;50.836;4.430;2023-02-22T04:23:54;30.80;;;16.35;;
27979;SDS011;15315;50.836;4.430;2023-02-22T04:33:54;26.57;;;16.00;;
27979;SDS011;15315;50.836;4.430;2023-02-22T04:43:54;27.25;;;15.15;;
27979;SDS011;15315;50.836;4.430;2023-02-22T04:53:55;24.77;;;14.65;;
27979;SDS011;15315;50.836;4.430;2023-02-22T05:03:56;23.13;;;13.98;;
27979;SDS011;15315;50.836;4.430;2023-02-22T05:13:56;26.73;;;14.10;;
27979;SDS011;15315;50.836;4.430;2023-02-22T05:23:57;24.63;;;13.90;;
27979;SDS011;15315;50.836;4.430;2023-02-22T05:33:57;24.55;;;14.00;;
27979;SDS011;15315;50.836;4.430;2023-02-22T05:43:57;25.45;;;14.02;;
27979;SDS011;15315;50.836;4.430;2023-02-22T05:53:58;19.35;;;11.93;;
27979;SDS011;15315;50.836;4.430;2023-02-22T06:03:58;24.08;;;12.35;;
27979;SDS011;15315;50.836;4.430;2023-02-22T06:13:59;20.75;;;11.50;;
27979;SDS011;15315;50.836;4.430;2023-02-22T06:24:00;25.35;;;13.32;;
27979;SDS011;15315;50.836;4.430;2023-02-22T06:34:03;23.75;;;11.38;;
27979;SDS011;15315;50.836;4.430;2023-02-22T06:44:03;18.40;;;11.93;;
27979;SDS011;15315;50.836;4.430;2023-02-22T06:54:04;18.85;;;10.80;;
27979;SDS011;15315;50.836;4.430;2023-02-22T07:04:05;18.67;;;11.07;;
27979;SDS011;15315;50.836;4.430;2023-02-22T07:14:05;20.10;;;10.68;;
27979;SDS011;15315;50.836;4.430;2023-02-22T07:24:06;23.90;;;11.85;;
27979;SDS011;15315;50.836;4.430;2023-02-22T07:34:06;23.27;;;11.52;;
27979;SDS011;15315;50.836;4.430;2023-02-22T07:44:06;24.40;;;11.95;;
27979;SDS011;15315;50.836;4.430;2023-02-22T07:54:07;28.73;;;11.25;;
27979;SDS011;15315;50.836;4.430;2023-02-22T08:04:07;20.80;;;11.02;;
27979;SDS011;15315;50.836;4.430;2023-02-22T08:14:08;19.58;;;11.02;;
27979;SDS011;15315;50.836;4.430;2023-02-22T08:24:08;25.08;;;12.15;;
27979;SDS011;15315;50.836;4.430;2023-02-22T08:34:10;27.33;;;11.68;;
27979;SDS011;15315;50.836;4.430;2023-02-22T08:44:10;26.83;;;11.65;;
27979;SDS011;15315;50.836;4.430;2023-02-22T08:54:10;26.73;;;11.65;;
27979;SDS011;15315;50.836;4.430;2023-02-22T09:04:11;23.42;;;12.45;;
27979;SDS011;15315;50.836;4.430;2023-02-22T09:14:11;25.20;;;11.57;;
27979;SDS011;15315;50.836;4.430;2023-02-22T09:24:13;21.40;;;12.23;;
27979;SDS011;15315;50.836;4.430;2023-02-22T09:34:14;23.10;;;12.07;;
27979;SDS011;15315;50.836;4.430;2023-02-22T09:54:23;28.17;;;14.30;;
27979;SDS011;15315;50.836;4.430;2023-02-22T10:14:55;31.88;;;15.02;;
27979;SDS011;15315;50.836;4.430;2023-02-22T10:25:22;26.08;;;16.38;;
27979;SDS011;15315;50.836;4.430;2023-02-22T10:35:26;29.77;;;17.00;;
27979;SDS011;15315;50.836;4.430;2023-02-22T10:45:31;29.95;;;17.17;;
27979;SDS011;15315;50.836;4.430;2023-02-22T11:06:19;32.65;;;19.52;;
27979;SDS011;15315;50.836;4.430;2023-02-22T11:16:34;38.40;;;20.75;;
27979;SDS011;15315;50.836;4.430;2023-02-22T11:26:41;33.40;;;20.60;;
27979;SDS011;15315;50.836;4.430;2023-02-22T11:46:53;34.33;;;20.35;;
27979;SDS011;15315;50.836;4.430;2023-02-22T11:57:04;31.50;;;21.17;;
27979;SDS011;15315;50.836;4.430;2023-02-22T12:07:29;37.60;;;21.77;;
27979;SDS011;15315;50.836;4.430;2023-02-22T12:17:37;35.85;;;21.58;;
27979;SDS011;15315;50.836;4.430;2023-02-22T12:27:54;37.08;;;22.85;;
27979;SDS011;15315;50.836;4.430;2023-02-22T12:38:00;36.47;;;23.02;;
27979;SDS011;15315;50.836;4.430;2023-02-22T12:48:32;36.17;;;23.27;;
27979;SDS011;15315;50.836;4.430;2023-02-22T13:29:30;39.08;;;24.92;;
27979;SDS011;15315;50.836;4.430;2023-02-22T14:00:23;45.70;;;27.05;;
27979;SDS011;15315;50.836;4.430;2023-02-22T14:10:49;41.13;;;28.08;;
27979;SDS011;15315;50.836;4.430;2023-02-22T14:21:04;45.75;;;30.63;;
27979;SDS011;15315;50.836;4.430;2023-02-22T14:31:09;48.47;;;30.95;;
27979;SDS011;15315;50.836;4.430;2023-02-22T14:41:12;50.03;;;33.03;;
27979;SDS011;15315;50.836;4.430;2023-02-22T15:01:29;52.78;;;34.78;;
27979;SDS011;15315;50.836;4.430;2023-02-22T15:11:36;55.17;;;34.87;;
27979;SDS011;15315;50.836;4.430;2023-02-22T15:21:36;54.08;;;35.40;;
27979;SDS011;15315;50.836;4.430;2023-02-22T15:31:45;57.25;;;37.67;;
27979;SDS011;15315;50.836;4.430;2023-02-22T15:41:45;57.25;;;35.28;;
27979;SDS011;15315;50.836;4.430;2023-02-22T15:51:46;51.17;;;32.05;;
27979;SDS011;15315;50.836;4.430;2023-02-22T16:01:59;58.97;;;36.70;;
27979;SDS011;15315;50.836;4.430;2023-02-22T16:12:06;60.60;;;34.25;;
27979;SDS011;15315;50.836;4.430;2023-02-22T16:22:22;56.08;;;31.27;;
27979;SDS011;15315;50.836;4.430;2023-02-22T16:32:25;62.97;;;33.78;;
27979;SDS011;15315;50.836;4.430;2023-02-22T16:42:26;67.78;;;34.95;;
27979;SDS011;15315;50.836;4.430;2023-02-22T16:52:26;71.95;;;35.72;;
27979;SDS011;15315;50.836;4.430;2023-02-22T17:02:27;73.00;;;37.85;;
27979;SDS011;15315;50.836;4.430;2023-02-22T17:12:28;75.18;;;38.55;;
27979;SDS011;15315;50.836;4.430;2023-02-22T17:22:31;79.20;;;39.00;;
27979;SDS011;15315;50.836;4.430;2023-02-22T17:32:31;85.18;;;39.55;;
27979;SDS011;15315;50.836;4.430;2023-02-22T17:42:31;80.90;;;40.47;;
27979;SDS011;15315;50.836;4.430;2023-02-22T17:52:32;91.43;;;46.83;;
27979;SDS011;15315;50.836;4.430;2023-02-22T18:02:32;89.15;;;43.42;;
27979;SDS011;15315;50.836;4.430;2023-02-22T18:12:33;91.43;;;44.15;;
27979;SDS011;15315;50.836;4.430;2023-02-22T18:22:33;100.00;;;46.42;;
27979;SDS011;15315;50.836;4.430;2023-02-22T18:32:34;98.13;;;45.90;;
27979;SDS011;15315;50.836;4.430;2023-02-22T18:42:35;100.97;;;46.50;;
27979;SDS011;15315;50.836;4.430;2023-02-22T18:52:37;99.32;;;45.35;;
27979;SDS011;15315;50.836;4.430;2023-02-22T19:02:44;96.60;;;46.80;;
27979;SDS011;15315;50.836;4.430;2023-02-22T19:12:44;88.40;;;45.78;;
27979;SDS011;15315;50.836;4.430;2023-02-22T19:22:45;92.78;;;44.20;;
27979;SDS011;15315;50.836;4.430;2023-02-22T19:32:47;93.55;;;44.95;;
27979;SDS011;15315;50.836;4.430;2023-02-22T19:42:48;90.63;;;42.78;;
27979;SDS011;15315;50.836;4.430;2023-02-22T19:52:52;93.55;;;44.85;;
27979;SDS011;15315;50.836;4.430;2023-02-22T20:02:56;96.95;;;45.38;;
27979;SDS011;15315;50.836;4.430;2023-02-22T20:13:04;80.88;;;44.90;;
27979;SDS011;15315;50.836;4.430;2023-02-22T20:23:05;93.85;;;44.17;;
27979;SDS011;15315;50.836;4.430;2023-02-22T20:33:08;92.28;;;44.35;;
27979;SDS011;15315;50.836;4.430;2023-02-22T20:43:09;87.63;;;46.30;;
27979;SDS011;15315;50.836;4.430;2023-02-22T20:53:09;106.43;;;48.67;;
27979;SDS011;15315;50.836;4.430;2023-02-22T21:03:09;106.03;;;48.92;;
27979;SDS011;15315;50.836;4.430;2023-02-22T21:13:10;98.05;;;48.60;;
27979;SDS011;15315;50.836;4.430;2023-02-22T21:23:11;100.47;;;49.42;;
27979;SDS011;15315;50.836;4.430;2023-02-22T21:33:11;101.65;;;48.55;;
27979;SDS011;15315;50.836;4.430;2023-02-22T21:43:14;108.35;;;50.50;;
27979;SDS011;15315;50.836;4.430;2023-02-22T21:53:15;109.10;;;48.17;;
27979;SDS011;15315;50.836;4.430;2023-02-22T22:03:17;96.18;;;46.58;;
27979;SDS011;15315;50.836;4.430;2023-02-22T22:13:21;88.65;;;45.13;;
27979;SDS011;15315;50.836;4.430;2023-02-22T22:23:21;91.63;;;45.50;;
27979;SDS011;15315;50.836;4.430;2023-02-22T22:33:22;94.07;;;46.60;;
27979;SDS011;15315;50.836;4.430;2023-02-22T22:43:22;91.03;;;47.20;;
27979;SDS011;15315;50.836;4.430;2023-02-22T22:53:23;90.07;;;47.20;;
27979;SDS011;15315;50.836;4.430;2023-02-22T23:03:23;82.00;;;46.00;;
27979;SDS011;15315;50.836;4.430;2023-02-22T23:13:23;83.80;;;45.67;;
27979;SDS011;15315;50.836;4.430;2023-02-22T23:23:24;77.13;;;43.75;;
27979;SDS011;15315;50.836;4.430;2023-02-22T23:33:26;77.55;;;44.40;;
27979;SDS011;15315;50.836;4.430;2023-02-22T23:43:30;73.10;;;40.50;;
27979;SDS011;15315;50.836;4.430;2023-02-22T23:53:31;67.60;;;39.70;;
